Time;durP1;ratioP1;P1;durP2;ratioP2;P2;SDS_P1;SDS_P2;PMS_P1;PMS_P2;Temp;Humidity;BMP_temperature;BMP_pressure;BME280_temperature;BME280_humidity;BME280_pressure;Samples;Min_cycle;Max_cycle;Signal;HPM_P1;HPM_P2
2022/10/11 00:01:22;;;;;;;4.95;3.13;;;12.00;99.90;;;;;;5070705;28;20079;-47
2022/10/11 00:03:49;;;;;;;3.60;2.80;;;12.10;99.90;;;;;;5070561;28;20049;-47
2022/10/11 00:06:16;;;;;;;10.27;2.72;;;12.10;99.90;;;;;;5070422;28;20127;-48
2022/10/11 00:08:43;;;;;;;4.05;1.88;;;12.00;99.90;;;;;;5065003;28;20450;-47
2022/10/11 00:11:10;;;;;;;5.40;2.15;;;12.00;99.90;;;;;;5069308;28;20083;-47
2022/10/11 00:13:36;;;;;;;4.25;1.98;;;12.00;99.90;;;;;;5060975;28;20151;-49
2022/10/11 00:16:08;;;;;;;7.35;2.08;;;11.90;99.90;;;;;;5069820;28;20512;-48
2022/10/11 00:18:35;;;;;;;6.85;2.45;;;11.90;99.90;;;;;;5069532;28;20051;-49
2022/10/11 00:21:05;;;;;;;5.53;2.00;;;11.80;99.90;;;;;;5070421;28;20044;-47
2022/10/11 00:23:32;;;;;;;7.32;2.28;;;11.80;99.90;;;;;;5065091;28;20493;-47
2022/10/11 00:26:01;;;;;;;7.70;2.63;;;11.80;99.90;;;;;;5052411;28;20072;-51
2022/10/11 00:28:28;;;;;;;3.33;2.30;;;11.80;99.90;;;;;;5067888;28;20508;-47
2022/10/11 00:30:55;;;;;;;5.00;2.05;;;11.80;99.90;;;;;;5065609;28;20071;-47
2022/10/11 00:33:22;;;;;;;4.88;1.80;;;11.70;99.90;;;;;;5069377;28;20084;-48
2022/10/11 00:35:49;;;;;;;8.73;2.22;;;11.80;99.90;;;;;;5069921;28;20489;-48
2022/10/11 00:38:16;;;;;;;4.45;1.75;;;11.70;99.90;;;;;;5069472;28;20052;-47
2022/10/11 00:40:43;;;;;;;3.72;2.38;;;11.80;99.90;;;;;;5067331;28;20037;-48
2022/10/11 00:43:19;;;;;;;8.80;3.15;;;11.80;99.90;;;;;;5074429;28;20417;-47
2022/10/11 00:46:12;;;;;;;5.30;3.65;;;11.90;99.90;;;;;;5057800;28;20032;-47
2022/10/11 00:48:43;;;;;;;3.20;2.38;;;11.90;99.90;;;;;;5042500;28;20060;-48
2022/10/11 00:51:32;;;;;;;8.15;4.20;;;11.90;99.90;;;;;;5073308;28;20075;-47
2022/10/11 00:54:01;;;;;;;2.95;1.83;;;11.90;99.90;;;;;;5066896;28;20069;-47
2022/10/11 00:56:35;;;;;;;6.95;3.05;;;11.90;99.90;;;;;;5054891;28;20488;-47
2022/10/11 00:59:07;;;;;;;5.00;2.33;;;11.90;99.90;;;;;;5073405;28;20079;-49
2022/10/11 01:01:34;;;;;;;5.43;2.30;;;11.90;99.90;;;;;;5073536;28;20083;-47
2022/10/11 01:04:36;;;;;;;5.45;3.08;;;11.80;99.90;;;;;;5071807;28;20040;-50
2022/10/11 01:07:03;;;;;;;6.85;3.70;;;11.90;99.90;;;;;;5031668;28;20089;-48
2022/10/11 01:09:30;;;;;;;6.35;4.15;;;12.30;99.90;;;;;;5053411;28;20079;-47
2022/10/11 01:12:00;;;;;;;9.25;2.53;;;12.00;99.90;;;;;;5063113;28;20111;-48
2022/10/11 01:14:51;;;;;;;9.68;2.35;;;12.00;99.90;;;;;;5073147;28;20075;-48
2022/10/11 01:17:42;;;;;;;4.57;2.55;;;12.00;99.90;;;;;;5073066;28;20124;-48
2022/10/11 01:20:27;;;;;;;5.30;2.50;;;11.90;99.90;;;;;;5070583;28;20064;-48
2022/10/11 01:23:15;;;;;;;5.50;2.63;;;11.80;99.90;;;;;;5055400;28;20079;-47
2022/10/11 01:26:11;;;;;;;7.05;2.55;;;11.80;99.90;;;;;;5068394;28;20036;-48
2022/10/11 01:29:01;;;;;;;3.35;2.50;;;11.80;99.90;;;;;;5057682;28;20068;-47
2022/10/11 01:31:45;;;;;;;8.00;2.72;;;11.80;99.90;;;;;;5073229;28;20132;-49
2022/10/11 01:34:21;;;;;;;7.40;3.47;;;11.90;99.90;;;;;;5069020;28;20497;-47
2022/10/11 01:37:12;;;;;;;4.95;2.90;;;11.90;99.90;;;;;;5058080;28;20587;-48
2022/10/11 01:39:55;;;;;;;5.47;2.63;;;12.00;99.90;;;;;;5037318;28;20073;-47
2022/10/11 01:42:22;;;;;;;6.32;2.20;;;12.00;99.90;;;;;;5055712;28;20071;-47
2022/10/11 01:44:50;;;;;;;6.22;2.50;;;12.00;99.90;;;;;;5067341;28;20040;-48
2022/10/11 01:47:22;;;;;;;4.93;2.17;;;12.00;99.90;;;;;;5071991;28;20123;-47
2022/10/11 01:49:57;;;;;;;6.63;2.10;;;11.90;99.90;;;;;;5070869;28;20071;-47
2022/10/11 01:52:27;;;;;;;9.32;3.25;;;11.90;99.90;;;;;;5072468;28;20091;-47
2022/10/11 01:55:12;;;;;;;2.42;1.60;;;11.90;99.90;;;;;;5071744;28;20033;-48
2022/10/11 01:57:45;;;;;;;2.42;1.83;;;11.80;99.90;;;;;;5071621;28;20106;-49
2022/10/11 02:00:19;;;;;;;3.38;1.98;;;11.90;99.90;;;;;;5072065;28;20071;-48
2022/10/11 02:02:45;;;;;;;6.13;2.10;;;11.80;99.90;;;;;;5072492;28;20094;-48
2022/10/11 02:05:36;;;;;;;3.92;1.98;;;11.70;99.90;;;;;;5072734;28;20673;-48
2022/10/11 02:08:17;;;;;;;5.70;1.88;;;11.70;99.90;;;;;;5070151;28;20044;-47
2022/10/11 02:10:50;;;;;;;3.40;1.80;;;11.80;99.90;;;;;;5065846;28;20063;-48
2022/10/11 02:13:30;;;;;;;5.20;2.10;;;11.80;99.90;;;;;;5064663;28;20041;-47
2022/10/11 02:16:00;;;;;;;9.27;2.05;;;11.80;99.90;;;;;;5054339;28;20055;-49
2022/10/11 02:18:33;;;;;;;5.10;1.77;;;11.60;99.90;;;;;;5071512;28;20048;-48
2022/10/11 02:21:03;;;;;;;4.80;2.15;;;11.70;99.90;;;;;;5071679;28;20040;-48
2022/10/11 02:23:39;;;;;;;2.58;1.83;;;11.70;99.90;;;;;;5063553;28;20064;-48
2022/10/11 02:26:07;;;;;;;3.33;1.65;;;11.80;99.90;;;;;;5071887;28;20105;-48
2022/10/11 02:28:36;;;;;;;3.67;2.20;;;11.80;99.90;;;;;;5063749;28;20953;-47
2022/10/11 02:31:05;;;;;;;6.93;2.00;;;11.70;99.90;;;;;;5071869;28;20119;-48
2022/10/11 02:33:46;;;;;;;8.88;2.08;;;11.70;99.90;;;;;;5070103;28;20119;-48
2022/10/11 02:36:23;;;;;;;4.03;2.22;;;11.70;99.90;;;;;;5072031;28;20048;-47
2022/10/11 02:38:56;;;;;;;6.15;2.15;;;11.70;99.90;;;;;;5070348;28;20041;-48
2022/10/11 02:41:51;;;;;;;4.72;1.80;;;12.10;99.90;;;;;;5071988;28;20097;-48
2022/10/11 02:44:26;;;;;;;4.53;2.03;;;11.80;99.90;;;;;;5069435;28;20121;-48
2022/10/11 02:46:53;;;;;;;4.68;1.88;;;11.80;99.90;;;;;;5070522;28;20408;-49
2022/10/11 02:49:20;;;;;;;4.38;2.22;;;11.70;99.90;;;;;;5071853;28;20476;-47
2022/10/11 02:51:47;;;;;;;5.25;1.90;;;11.80;99.90;;;;;;5070178;28;20028;-47
2022/10/11 02:54:14;;;;;;;4.10;1.83;;;11.70;99.90;;;;;;5078201;28;20036;-47
2022/10/11 02:56:40;;;;;;;4.53;1.95;;;11.60;99.90;;;;;;5094466;22;20104;-47
2022/10/11 02:59:07;;;;;;;4.93;2.17;;;11.60;99.90;;;;;;5111698;28;20123;-47
2022/10/11 03:01:34;;;;;;;5.55;2.30;;;11.60;99.90;;;;;;5103839;28;20068;-46
2022/10/11 03:04:01;;;;;;;2.83;1.80;;;11.60;99.90;;;;;;5110818;28;20039;-46
2022/10/11 03:06:27;;;;;;;7.40;2.20;;;11.70;99.90;;;;;;5105008;28;20067;-46
2022/10/11 03:08:54;;;;;;;3.70;2.10;;;11.80;99.90;;;;;;5097427;28;20060;-48
2022/10/11 03:11:21;;;;;;;5.38;2.20;;;11.80;99.90;;;;;;5099437;28;20075;-48
2022/10/11 03:13:47;;;;;;;7.95;2.55;;;11.90;99.90;;;;;;5111509;28;20443;-46
2022/10/11 03:16:14;;;;;;;4.88;2.33;;;11.80;99.90;;;;;;5103318;28;20082;-46
2022/10/11 03:18:41;;;;;;;7.97;2.60;;;11.80;99.90;;;;;;5100790;28;20039;-47
2022/10/11 03:21:08;;;;;;;6.32;2.88;;;11.90;99.90;;;;;;5108176;28;20043;-46
2022/10/11 03:23:35;;;;;;;6.97;3.08;;;11.90;99.90;;;;;;5107094;28;20115;-48
2022/10/11 03:26:01;;;;;;;9.70;3.13;;;11.90;99.90;;;;;;5101713;28;20063;-47
2022/10/11 03:28:29;;;;;;;;;;;11.90;99.90;;;;;;5108405;28;20032;-46
2022/10/11 03:30:56;;;;;;;11.15;2.83;;;12.00;99.90;;;;;;5101872;28;19920;-50
2022/10/11 03:33:22;;;;;;;2.72;1.80;;;12.00;99.90;;;;;;5110627;28;20066;-49
2022/10/11 03:35:49;;;;;;;5.22;2.00;;;12.00;99.90;;;;;;5089385;28;20472;-46
2022/10/11 03:38:20;;;;;;;5.90;2.65;;;11.90;99.90;;;;;;5108476;28;20046;-48
2022/10/11 03:40:47;;;;;;;5.55;2.90;;;12.00;99.90;;;;;;5103338;28;20074;-46
2022/10/11 03:43:14;;;;;;;6.70;3.75;;;12.00;99.90;;;;;;5111666;28;20043;-47
2022/10/11 03:45:44;;;;;;;11.45;3.75;;;12.00;99.90;;;;;;5102018;28;20114;-47
2022/10/11 03:48:11;;;;;;;6.72;3.40;;;12.10;99.90;;;;;;5101684;28;20079;-48
2022/10/11 03:50:38;;;;;;;8.75;3.30;;;12.10;99.90;;;;;;5103706;28;20070;-45
2022/10/11 03:53:05;;;;;;;9.60;4.07;;;12.10;99.90;;;;;;5110303;28;20089;-46
2022/10/11 03:55:32;;;;;;;4.55;2.40;;;12.10;99.90;;;;;;5103604;28;20055;-46
2022/10/11 03:57:59;;;;;;;7.38;2.50;;;12.00;99.90;;;;;;5104460;28;20078;-49
2022/10/11 04:00:25;;;;;;;6.20;2.60;;;12.10;99.90;;;;;;5108784;28;20122;-49
2022/10/11 04:02:52;;;;;;;5.07;2.65;;;12.00;99.90;;;;;;5111643;28;20086;-46
2022/10/11 04:05:19;;;;;;;8.60;2.28;;;12.00;99.90;;;;;;5109064;28;20503;-49
2022/10/11 04:07:46;;;;;;;10.65;3.53;;;12.00;99.90;;;;;;5110960;28;20093;-48
2022/10/11 04:10:13;;;;;;;11.25;4.43;;;12.00;99.90;;;;;;5108867;28;20458;-46
2022/10/11 04:12:39;;;;;;;4.60;3.53;;;12.00;99.90;;;;;;5099869;28;20040;-46
2022/10/11 04:15:06;;;;;;;9.68;3.97;;;12.00;99.90;;;;;;5103884;28;20040;-48
2022/10/11 04:17:33;;;;;;;9.27;4.40;;;12.10;99.90;;;;;;5115149;28;20078;-47
2022/10/11 04:20:00;;;;;;;10.27;4.15;;;12.10;99.90;;;;;;5109424;28;20568;-46
2022/10/11 04:22:27;;;;;;;11.57;5.30;;;12.10;99.90;;;;;;5105885;28;20051;-48
2022/10/11 04:24:54;;;;;;;5.68;2.67;;;12.10;99.90;;;;;;5111121;28;20094;-47
2022/10/11 04:27:21;;;;;;;4.45;2.40;;;12.10;99.90;;;;;;5113417;28;20108;-46
2022/10/11 04:29:47;;;;;;;5.10;2.58;;;12.00;99.90;;;;;;5096885;28;20059;-48
2022/10/11 04:32:14;;;;;;;6.60;2.78;;;12.00;99.90;;;;;;5112892;28;20463;-47
2022/10/11 04:34:41;;;;;;;5.00;2.42;;;11.90;99.90;;;;;;5107627;28;20527;-46
2022/10/11 04:37:08;;;;;;;7.40;3.03;;;11.90;99.90;;;;;;5106728;28;20571;-46
2022/10/11 04:39:34;;;;;;;7.70;3.33;;;11.80;99.90;;;;;;5103179;28;20067;-50
2022/10/11 04:42:01;;;;;;;12.20;5.05;;;11.80;99.90;;;;;;5114403;28;20043;-46
2022/10/11 04:44:28;;;;;;;5.57;3.92;;;11.90;99.90;;;;;;5113680;28;20089;-46
2022/10/11 04:46:55;;;;;;;5.50;3.30;;;11.90;99.90;;;;;;5107755;28;20071;-46
2022/10/11 04:49:22;;;;;;;6.78;3.50;;;11.90;99.90;;;;;;5109436;28;20092;-46
2022/10/11 04:51:49;;;;;;;6.88;4.03;;;11.90;99.90;;;;;;5095510;28;20074;-46
2022/10/11 04:54:15;;;;;;;7.32;3.40;;;11.80;99.90;;;;;;5113139;28;20097;-48
2022/10/11 04:56:42;;;;;;;5.05;3.40;;;11.80;99.90;;;;;;5114104;28;20081;-46
2022/10/11 04:59:09;;;;;;;11.15;4.07;;;11.80;99.90;;;;;;5111437;28;20125;-46
2022/10/11 05:01:36;;;;;;;10.93;4.22;;;11.80;99.90;;;;;;5109322;28;20115;-47
2022/10/11 05:04:03;;;;;;;11.70;5.00;;;11.80;99.90;;;;;;5113940;28;20049;-46
2022/10/11 05:06:30;;;;;;;9.75;4.20;;;11.80;99.90;;;;;;5111970;28;20561;-46
2022/10/11 05:08:57;;;;;;;9.68;4.80;;;11.80;99.90;;;;;;5095203;28;20071;-47
2022/10/11 05:11:23;;;;;;;8.60;3.83;;;11.90;99.90;;;;;;5112953;28;20040;-46
2022/10/11 05:13:50;;;;;;;6.95;3.80;;;11.90;99.90;;;;;;5104624;28;20111;-51
2022/10/11 05:16:17;;;;;;;8.80;3.80;;;11.90;99.90;;;;;;5114158;28;20040;-49
2022/10/11 05:18:44;;;;;;;6.22;3.72;;;11.90;99.90;;;;;;5114110;28;20487;-46
2022/10/11 05:21:26;;;;;;;6.13;3.55;;;11.90;99.90;;;;;;5114258;28;20131;-48
2022/10/11 05:23:55;;;;;;;7.85;4.30;;;11.90;99.90;;;;;;5089685;28;20557;-48
2022/10/11 05:26:23;;;;;;;6.30;3.63;;;11.80;99.90;;;;;;5107243;28;20072;-48
2022/10/11 05:28:51;;;;;;;7.70;3.92;;;11.80;99.90;;;;;;5108731;28;20039;-48
2022/10/11 05:31:18;;;;;;;6.13;4.07;;;11.90;99.90;;;;;;5110040;28;20089;-48
2022/10/11 05:33:45;;;;;;;9.80;4.70;;;11.90;99.90;;;;;;5110376;28;20544;-47
2022/10/11 05:36:13;;;;;;;5.82;3.95;;;11.80;99.90;;;;;;5112517;28;20048;-49
2022/10/11 05:38:40;;;;;;;5.93;3.25;;;11.80;99.90;;;;;;5112990;28;20043;-46
2022/10/11 05:41:10;;;;;;;7.80;3.40;;;11.70;99.90;;;;;;5106538;28;20083;-49
2022/10/11 05:43:37;;;;;;;8.27;5.10;;;11.80;99.90;;;;;;5097442;28;20067;-51
2022/10/11 05:46:04;;;;;;;8.75;5.43;;;11.80;99.90;;;;;;5103434;28;20067;-48
2022/10/11 05:48:31;;;;;;;9.82;5.47;;;11.90;99.90;;;;;;5112828;28;20048;-48
2022/10/11 05:51:03;;;;;;;9.75;5.10;;;11.90;99.90;;;;;;5112825;28;20074;-48
2022/10/11 05:53:30;;;;;;;9.93;5.32;;;11.90;99.90;;;;;;5109787;28;20135;-48
2022/10/11 05:55:57;;;;;;;10.20;4.15;;;11.90;99.90;;;;;;5113096;28;20062;-49
2022/10/11 05:58:25;;;;;;;10.20;3.90;;;11.80;99.90;;;;;;5112478;28;20043;-48
2022/10/11 06:00:51;;;;;;;;;;;11.80;99.90;;;;;;5113840;28;20078;-46
2022/10/11 06:03:19;;;;;;;8.30;4.22;;;11.90;99.90;;;;;;5091284;28;20360;-48
2022/10/11 06:05:46;;;;;;;6.43;3.80;;;11.90;99.90;;;;;;5112826;28;20078;-48
2022/10/11 06:08:14;;;;;;;6.57;4.78;;;12.00;99.90;;;;;;5113063;28;20071;-48
2022/10/11 06:10:41;;;;;;;11.10;5.35;;;12.00;99.90;;;;;;5113102;28;20113;-48
2022/10/11 06:13:08;;;;;;;9.23;5.75;;;12.00;99.90;;;;;;5092219;28;20040;-49
2022/10/11 06:15:38;;;;;;;11.88;5.78;;;12.10;99.90;;;;;;5112960;28;20059;-48
2022/10/11 06:18:04;;;;;;;14.20;5.78;;;12.10;99.90;;;;;;5112082;28;20119;-48
2022/10/11 06:20:31;;;;;;;9.80;5.78;;;12.10;99.90;;;;;;5112827;28;20109;-48
2022/10/11 06:22:58;;;;;;;7.85;5.60;;;12.20;99.90;;;;;;5098029;28;20044;-48
2022/10/11 06:25:25;;;;;;;11.07;6.35;;;12.20;99.90;;;;;;5111467;28;20471;-48
2022/10/11 06:27:51;;;;;;;8.88;6.10;;;12.30;99.90;;;;;;5112339;28;20073;-48
2022/10/11 06:30:18;;;;;;;10.68;6.03;;;12.40;99.90;;;;;;5103174;28;20052;-48
2022/10/11 06:32:45;;;;;;;13.80;6.32;;;12.30;99.90;;;;;;5112410;28;20043;-48
2022/10/11 06:35:12;;;;;;;8.07;5.68;;;12.40;99.90;;;;;;5111978;28;20462;-47
2022/10/11 06:37:38;;;;;;;8.20;5.72;;;12.40;99.90;;;;;;5112282;28;20055;-46
2022/10/11 06:40:06;;;;;;;11.65;6.20;;;12.50;99.90;;;;;;5103922;28;20063;-48
2022/10/11 06:42:32;;;;;;;8.80;5.18;;;12.50;99.90;;;;;;5091238;28;20032;-50
2022/10/11 06:44:59;;;;;;;11.77;6.32;;;12.50;99.90;;;;;;5091838;28;20079;-48
2022/10/11 06:47:26;;;;;;;8.85;6.43;;;12.60;99.90;;;;;;5101587;28;20175;-48
2022/10/11 06:49:52;;;;;;;12.68;6.22;;;12.60;99.90;;;;;;5108956;28;20090;-50
2022/10/11 06:52:19;;;;;;;10.27;6.00;;;12.60;99.90;;;;;;5112031;28;20067;-48
2022/10/11 06:54:46;;;;;;;10.30;5.53;;;12.60;99.90;;;;;;5097447;28;20108;-49
2022/10/11 06:57:13;;;;;;;9.27;5.70;;;12.60;99.90;;;;;;5112020;28;20092;-48
2022/10/11 06:59:39;;;;;;;9.50;5.68;;;12.60;99.90;;;;;;5111208;28;20063;-49
2022/10/11 07:02:07;;;;;;;10.80;6.43;;;12.60;99.90;;;;;;5093733;28;20070;-48
2022/10/11 07:04:34;;;;;;;9.23;5.85;;;12.70;99.90;;;;;;5106421;28;20035;-49
2022/10/11 07:07:00;;;;;;;14.77;6.07;;;12.70;99.90;;;;;;5111821;28;20047;-48
2022/10/11 07:09:27;;;;;;;9.32;5.75;;;12.70;99.90;;;;;;5112152;28;20043;-48
2022/10/11 07:11:54;;;;;;;11.30;5.22;;;12.70;99.90;;;;;;5105432;28;20078;-48
2022/10/11 07:14:21;;;;;;;12.73;5.50;;;12.70;99.90;;;;;;5108794;28;20186;-48
2022/10/11 07:16:47;;;;;;;9.77;5.88;;;12.80;99.90;;;;;;5111947;28;20059;-48
2022/10/11 07:19:14;;;;;;;8.50;5.63;;;12.80;99.90;;;;;;5099772;28;20047;-49
2022/10/11 07:21:41;;;;;;;11.73;5.88;;;12.90;99.90;;;;;;5111383;28;20104;-48
2022/10/11 07:24:08;;;;;;;10.93;6.15;;;13.10;99.90;;;;;;5111614;28;20553;-49
2022/10/11 07:26:35;;;;;;;7.85;5.20;;;13.10;99.90;;;;;;5105657;28;20048;-51
2022/10/11 07:29:06;;;;;;;10.25;6.03;;;13.20;99.90;;;;;;5108737;28;20035;-49
2022/10/11 07:31:35;;;;;;;11.77;6.32;;;13.20;99.90;;;;;;5110473;28;20036;-49
2022/10/11 07:34:02;;;;;;;11.40;5.85;;;13.20;99.90;;;;;;5101771;28;20044;-50
2022/10/11 07:36:28;;;;;;;15.48;6.28;;;13.20;99.90;;;;;;5111522;28;20039;-46
2022/10/11 07:38:55;;;;;;;9.98;5.50;;;13.20;99.90;;;;;;5111591;28;20054;-48
2022/10/11 07:41:22;;;;;;;10.38;6.18;;;13.30;99.90;;;;;;5105120;28;20425;-48
2022/10/11 07:43:49;;;;;;;8.25;5.55;;;13.20;99.90;;;;;;5108458;28;20048;-48
2022/10/11 07:46:17;;;;;;;16.63;6.35;;;13.20;99.90;;;;;;5102108;28;20112;-48
2022/10/11 07:48:44;;;;;;;9.85;6.03;;;13.30;99.90;;;;;;5112309;28;20096;-49
2022/10/11 07:51:12;;;;;;;8.40;5.68;;;13.20;99.90;;;;;;5097349;28;20452;-48
2022/10/11 07:53:47;;;;;;;8.13;5.65;;;13.10;99.90;;;;;;5105662;28;20488;-48
2022/10/11 07:56:17;;;;;;;10.25;6.22;;;13.20;99.90;;;;;;5105762;28;20159;-48
2022/10/11 07:58:52;;;;;;;19.10;7.10;;;13.20;99.90;;;;;;5107715;28;20055;-48
2022/10/11 08:01:20;;;;;;;10.00;6.25;;;13.10;99.90;;;;;;5106257;28;20043;-48
2022/10/11 08:03:47;;;;;;;10.05;6.10;;;13.20;99.90;;;;;;5115072;28;20071;-48
2022/10/11 08:06:15;;;;;;;;;;;13.20;99.90;;;;;;5115076;28;20075;-47
2022/10/11 08:08:42;;;;;;;11.77;6.13;;;13.20;99.90;;;;;;5115597;28;20388;-48
2022/10/11 08:11:09;;;;;;;16.67;8.07;;;13.20;99.90;;;;;;5110241;28;20445;-48
2022/10/11 08:13:36;;;;;;;9.60;5.57;;;13.30;99.90;;;;;;5104046;28;20115;-47
2022/10/11 08:16:10;;;;;;;12.52;5.40;;;13.30;99.90;;;;;;5115340;28;20043;-47
2022/10/11 08:18:37;;;;;;;10.95;5.88;;;13.40;99.90;;;;;;5115034;28;20454;-49
2022/10/11 08:21:09;;;;;;;11.45;6.50;;;13.40;99.90;;;;;;5115129;28;20303;-48
2022/10/11 08:23:35;;;;;;;12.32;6.40;;;13.30;99.90;;;;;;5096547;28;20059;-47
2022/10/11 08:26:03;;;;;;;12.40;6.75;;;13.40;99.90;;;;;;5115167;28;20048;-48
2022/10/11 08:28:30;;;;;;;15.05;6.47;;;13.50;99.90;;;;;;5112054;28;20043;-47
2022/10/11 08:30:57;;;;;;;8.48;5.68;;;13.50;99.90;;;;;;5110354;28;20510;-48
2022/10/11 08:33:25;;;;;;;10.15;6.65;;;13.60;99.90;;;;;;5114954;28;20047;-48
2022/10/11 08:35:53;;;;;;;11.88;5.57;;;13.70;99.90;;;;;;5114770;28;20046;-48
2022/10/11 08:38:20;;;;;;;9.88;5.53;;;13.80;99.90;;;;;;5104163;28;20520;-48
2022/10/11 08:40:58;;;;;;;;;;;14.00;99.90;;;;;;5113953;28;20048;-48
2022/10/11 08:43:42;;;;;;;7.97;5.65;;;14.10;99.90;;;;;;5106676;28;19951;-48
2022/10/11 08:46:11;;;;;;;9.50;5.40;;;14.20;99.90;;;;;;5114780;28;20082;-48
2022/10/11 08:48:47;;;;;;;8.07;5.55;;;14.30;99.90;;;;;;5102521;28;20039;-47
2022/10/11 08:51:23;;;;;;;8.52;5.03;;;14.20;99.90;;;;;;5114469;28;20040;-47
2022/10/11 08:54:03;;;;;;;7.90;4.50;;;14.20;99.90;;;;;;5114327;28;20044;-48
2022/10/11 09:01:01;;;;;;;10.95;5.50;;;14.10;99.90;;;;;;5109973;28;20030;-56
2022/10/11 09:03:42;;;;;;;11.68;5.05;;;14.00;99.90;;;;;;5091004;28;20043;-56
2022/10/11 09:06:44;;;;;;;8.70;5.28;;;14.20;99.90;;;;;;5126086;27;20100;-57
2022/10/11 09:09:30;;;;;;;9.73;4.78;;;14.50;99.90;;;;;;5134705;27;20062;-57
2022/10/11 09:11:59;;;;;;;8.95;4.97;;;14.30;99.90;;;;;;5135207;27;20448;-56
2022/10/11 09:14:40;;;;;;;11.00;5.50;;;14.30;99.90;;;;;;5126146;27;20039;-56
2022/10/11 09:17:28;;;;;;;16.60;6.30;;;14.30;99.90;;;;;;5134773;27;20114;-57
2022/10/11 09:20:21;;;;;;;9.20;5.03;;;14.50;99.90;;;;;;5123485;27;20335;-57
2022/10/11 09:22:53;;;;;;;11.70;4.80;;;14.50;99.90;;;;;;5128362;27;20051;-57
2022/10/11 09:25:29;;;;;;;9.63;5.35;;;14.60;99.90;;;;;;5134053;27;20082;-57
2022/10/11 09:28:10;;;;;;;8.32;5.10;;;14.60;99.90;;;;;;5134872;27;20097;-56
2022/10/11 09:30:44;;;;;;;8.95;5.20;;;14.70;99.90;;;;;;5127664;27;20043;-56
2022/10/11 09:33:38;;;;;;;8.07;5.03;;;14.80;99.90;;;;;;5134627;27;20039;-58
2022/10/11 09:36:28;;;;;;;6.00;4.50;;;14.80;99.90;;;;;;5123605;27;20100;-57
2022/10/11 09:39:09;;;;;;;9.10;4.57;;;14.80;99.90;;;;;;5128095;27;20043;-56
2022/10/11 09:42:04;;;;;;;6.82;4.72;;;14.90;99.90;;;;;;5133319;27;20143;-57
2022/10/11 09:44:35;;;;;;;7.80;4.32;;;14.90;99.90;;;;;;5128186;27;20042;-56
2022/10/11 09:47:04;;;;;;;8.50;4.28;;;14.80;99.90;;;;;;5130027;27;20738;-57
2022/10/11 09:49:41;;;;;;;5.25;3.80;;;14.80;99.90;;;;;;5133413;27;20491;-56
2022/10/11 09:52:16;;;;;;;7.07;4.20;;;14.90;99.90;;;;;;5133982;27;20118;-57
2022/10/11 09:55:02;;;;;;;10.90;5.85;;;15.10;99.90;;;;;;5133706;27;20096;-56
2022/10/11 09:57:32;;;;;;;11.98;4.93;;;15.20;99.90;;;;;;5133809;27;20035;-56
2022/10/11 10:00:19;;;;;;;6.05;4.82;;;15.30;99.90;;;;;;5127883;27;20111;-57
2022/10/11 10:02:51;;;;;;;7.78;4.43;;;15.10;99.90;;;;;;5133803;27;20035;-54
2022/10/11 10:05:19;;;;;;;10.63;5.75;;;14.90;99.90;;;;;;5129325;27;20051;-57
2022/10/11 10:08:08;;;;;;;8.23;5.15;;;14.90;99.90;;;;;;5133560;27;20096;-56
2022/10/11 10:10:50;;;;;;;8.18;5.30;;;14.90;99.90;;;;;;5133005;27;20113;-56
2022/10/11 10:13:39;;;;;;;7.78;4.80;;;15.00;99.90;;;;;;5129445;27;20036;-56
2022/10/11 10:16:10;;;;;;;9.57;5.78;;;15.10;99.90;;;;;;5133608;27;20122;-56
2022/10/11 10:18:57;;;;;;;13.77;4.90;;;15.20;99.90;;;;;;5133611;27;20039;-55
2022/10/11 10:21:29;;;;;;;7.63;5.18;;;15.40;99.90;;;;;;5128903;27;20411;-56
2022/10/11 10:24:01;;;;;;;7.65;4.40;;;15.50;99.90;;;;;;5129132;27;20478;-56
2022/10/11 10:26:29;;;;;;;13.13;6.30;;;15.80;99.90;;;;;;5133229;27;20088;-56
2022/10/11 10:29:08;;;;;;;8.88;5.60;;;15.70;99.90;;;;;;5133271;27;20437;-57
2022/10/11 10:31:51;;;;;;;24.65;11.45;;;15.60;99.90;;;;;;5121466;27;20043;-56
2022/10/11 10:34:51;;;;;;;12.57;6.93;;;15.50;99.90;;;;;;5132857;27;20045;-56
2022/10/11 10:37:33;;;;;;;14.05;8.55;;;15.40;99.90;;;;;;5133241;27;20070;-55
2022/10/11 10:40:26;;;;;;;8.50;5.00;;;15.30;99.90;;;;;;5133108;27;20099;-54
2022/10/11 10:42:53;;;;;;;8.25;4.43;;;15.30;99.90;;;;;;5120555;27;20511;-57
2022/10/11 10:45:23;;;;;;;10.80;5.10;;;15.50;99.90;;;;;;5131121;27;20043;-56
2022/10/11 10:48:23;;;;;;;7.75;4.07;;;15.40;99.90;;;;;;5133065;27;20545;-54
2022/10/11 10:51:09;;;;;;;7.25;4.70;;;15.30;99.90;;;;;;5130293;27;20059;-56
2022/10/11 10:53:57;;;;;;;6.57;4.07;;;15.40;99.90;;;;;;5124736;27;20076;-56
2022/10/11 10:56:37;;;;;;;10.75;5.00;;;15.40;99.90;;;;;;5132715;27;20051;-56
2022/10/11 10:59:18;;;;;;;7.38;4.85;;;15.40;99.90;;;;;;5124342;27;20048;-57
2022/10/11 11:02:00;;;;;;;8.65;5.38;;;15.50;99.90;;;;;;5126206;27;20051;-56
2022/10/11 11:05:17;;;;;;;7.47;4.10;;;15.70;99.90;;;;;;5131476;27;20047;-56
2022/10/11 11:07:58;;;;;;;8.10;4.60;;;15.80;99.90;;;;;;5126356;27;20043;-57
2022/10/11 11:11:00;;;;;;;8.80;4.28;;;15.80;99.90;;;;;;5132597;27;20084;-56
2022/10/11 11:14:01;;;;;;;4.90;4.18;;;15.90;99.90;;;;;;5131377;27;20059;-55
2022/10/11 11:16:49;;;;;;;8.27;4.75;;;15.80;99.90;;;;;;5113497;27;20821;-57
2022/10/11 11:19:16;;;;;;;;;;;15.90;99.90;;;;;;5132322;27;20043;-56
2022/10/11 11:22:05;;;;;;;8.63;4.68;;;16.10;99.90;;;;;;5127924;27;19953;-56
2022/10/11 11:24:44;;;;;;;10.57;4.88;;;16.00;99.90;;;;;;5131428;27;20071;-56
2022/10/11 11:27:28;;;;;;;17.13;8.95;;;16.00;99.90;;;;;;5132455;27;20086;-56
2022/10/11 11:30:02;;;;;;;19.60;8.38;;;16.20;99.90;;;;;;5127312;27;20101;-56
2022/10/11 11:32:55;;;;;;;8.68;5.35;;;16.40;99.90;;;;;;5132293;27;20073;-56
2022/10/11 11:35:25;;;;;;;8.50;5.32;;;16.50;99.90;;;;;;5131579;27;20088;-57
2022/10/11 11:38:04;;;;;;;8.23;4.57;;;16.50;99.90;;;;;;5129276;27;20085;-56
2022/10/11 11:40:37;;;;;;;12.48;4.72;;;16.60;99.90;;;;;;5123526;27;20045;-57
2022/10/11 11:43:15;;;;;;;7.20;4.28;;;16.80;99.90;;;;;;5132483;27;20415;-57
2022/10/11 11:45:58;;;;;;;7.57;4.75;;;16.90;99.90;;;;;;5122895;28;20070;-56
2022/10/11 11:48:25;;;;;;;10.18;4.40;;;17.00;99.90;;;;;;5132034;28;20556;-56
2022/10/11 11:51:03;;;;;;;8.05;4.95;;;17.00;99.90;;;;;;5132065;28;20075;-57
2022/10/11 11:53:39;;;;;;;6.85;4.50;;;17.00;99.90;;;;;;5119373;28;20039;-55
2022/10/11 11:56:13;;;;;;;11.73;4.47;;;17.00;99.90;;;;;;5128417;28;20444;-55
2022/10/11 11:58:51;;;;;;;8.60;4.53;;;16.90;99.90;;;;;;5131823;28;20100;-56
2022/10/11 12:01:44;;;;;;;8.70;4.03;;;17.00;99.90;;;;;;5131805;28;20096;-57
2022/10/11 12:04:40;;;;;;;7.60;4.10;;;17.20;99.90;;;;;;5118129;28;20407;-56
2022/10/11 12:07:11;;;;;;;4.43;3.60;;;17.40;99.90;;;;;;5129742;28;20401;-57
2022/10/11 12:09:49;;;;;;;5.25;3.67;;;17.50;99.90;;;;;;5131811;28;20035;-56
2022/10/11 12:12:34;;;;;;;5.63;3.45;;;17.50;99.90;;;;;;5121190;28;20043;-57
2022/10/11 12:15:24;;;;;;;8.05;3.78;;;17.40;99.90;;;;;;5127046;28;20100;-55
2022/10/11 12:17:57;;;;;;;6.72;4.18;;;17.40;99.90;;;;;;5130961;28;20082;-56
2022/10/11 12:20:40;;;;;;;6.40;3.85;;;17.40;99.90;;;;;;5131890;28;20050;-56
2022/10/11 12:23:29;;;;;;;9.40;3.63;;;17.40;99.90;;;;;;5118847;28;20171;-56
2022/10/11 12:26:16;;;;;;;9.98;3.70;;;17.30;99.90;;;;;;5131270;28;20043;-56
2022/10/11 12:28:57;;;;;;;6.60;3.70;;;17.30;99.90;;;;;;5126298;28;20497;-56
2022/10/11 12:31:27;;;;;;;7.65;4.20;;;17.20;99.90;;;;;;5130593;28;20471;-56
2022/10/11 12:33:59;;;;;;;5.07;3.50;;;17.10;99.90;;;;;;5131307;28;20499;-56
2022/10/11 12:36:45;;;;;;;9.20;3.67;;;17.10;99.90;;;;;;5135333;27;20042;-56
2022/10/11 12:39:18;;;;;;;6.80;3.60;;;17.30;99.90;;;;;;5126516;27;20104;-57
2022/10/11 12:41:54;;;;;;;6.68;3.95;;;17.30;99.90;;;;;;5135358;27;20047;-57
2022/10/11 12:44:25;;;;;;;6.60;3.63;;;17.20;99.90;;;;;;5135180;27;20043;-56
2022/10/11 12:46:56;;;;;;;6.95;3.95;;;17.20;99.90;;;;;;5131341;27;20043;-56
2022/10/11 12:49:35;;;;;;;7.07;4.15;;;17.20;99.90;;;;;;5125039;27;20519;-54
2022/10/11 12:52:16;;;;;;;9.82;4.32;;;17.30;99.90;;;;;;5135391;27;20436;-54
2022/10/11 12:55:07;;;;;;;5.05;3.70;;;17.40;99.90;;;;;;5126428;27;20088;-54
2022/10/11 12:57:53;;;;;;;6.35;3.92;;;17.40;99.90;;;;;;5135095;27;20035;-56
2022/10/11 13:00:30;;;;;;;6.47;4.15;;;17.40;99.90;;;;;;5135036;27;20051;-55
2022/10/11 13:03:03;;;;;;;5.20;3.77;;;17.70;99.90;;;;;;5117629;27;20055;-56
2022/10/11 13:05:45;;;;;;;6.90;3.97;;;18.00;99.90;;;;;;5134318;27;20043;-56
2022/10/11 13:08:26;;;;;;;7.32;4.50;;;18.00;99.90;;;;;;5117779;27;20047;-56
2022/10/11 13:10:56;;;;;;;10.23;4.07;;;18.00;99.90;;;;;;5135024;27;20071;-57
2022/10/11 13:13:37;;;;;;;8.45;3.50;;;17.90;99.90;;;;;;5117113;27;20097;-57
2022/10/11 13:16:59;;;;;;;7.30;3.85;;;17.70;99.90;;;;;;5134554;27;20088;-55
2022/10/11 13:19:27;;;;;;;9.65;3.90;;;17.40;99.90;;;;;;5092799;27;20051;-56
2022/10/11 13:21:57;;;;;;;6.63;4.05;;;17.40;99.90;;;;;;5126649;27;20496;-56